Time;durP1;ratioP1;P1;durP2;ratioP2;P2;SDS_P1;SDS_P2;PMS_P1;PMS_P2;Temp;Humidity;BMP_temperature;BMP_pressure;BME280_temperature;BME280_humidity;BME280_pressure;Samples;Min_cycle;Max_cycle;Signal;HPM_P1;HPM_P2
2021/01/10 00:02:04;;;;;;;;;48.25;41.25;;;;;;;;12615640;28;8827;-50
2021/01/10 00:08:06;;;;;;;;;56.50;47.00;;;;;;;;12623490;28;8986;-46
2021/01/10 00:14:07;;;;;;;;;52.50;47.00;;;;;;;;12618709;28;8838;-50
2021/01/10 00:20:10;;;;;;;;;47.50;46.50;;;;;;;;12624701;28;8846;-49
2021/01/10 00:26:12;;;;;;;;;55.00;47.50;;;;;;;;12619253;28;8833;-50
2021/01/10 00:32:14;;;;;;;;;55.50;48.00;;;;;;;;12625382;28;8847;-49
2021/01/10 00:38:16;;;;;;;;;53.25;47.75;;;;;;;;12623062;28;8940;-49
2021/01/10 00:44:17;;;;;;;;;53.50;46.25;;;;;;;;12626396;28;8874;-48
2021/01/10 00:50:19;;;;;;;;;44.50;43.75;;;;;;;;12599902;28;8910;-49
2021/01/10 00:56:21;;;;;;;;;61.00;44.25;;;;;;;;12619881;28;8862;-46
2021/01/10 01:02:23;;;;;;;;;54.50;46.75;;;;;;;;12610395;28;8950;-47
2021/01/10 01:08:25;;;;;;;;;48.25;39.75;;;;;;;;12625288;28;9178;-47
2021/01/10 01:14:27;;;;;;;;;60.00;49.00;;;;;;;;12607148;28;8859;-48
2021/01/10 01:20:29;;;;;;;;;53.75;46.75;;;;;;;;12627522;28;8832;-47
2021/01/10 01:26:30;;;;;;;;;64.75;50.25;;;;;;;;12621003;28;8906;-49
2021/01/10 01:32:35;;;;;;;;;56.00;47.25;;;;;;;;12577642;28;8837;-48
2021/01/10 01:38:41;;;;;;;;;66.50;53.25;;;;;;;;12625681;28;8856;-51
2021/01/10 01:44:45;;;;;;;;;56.50;48.25;;;;;;;;12627617;28;8824;-45
2021/01/10 01:50:48;;;;;;;;;61.75;48.00;;;;;;;;12627571;28;8836;-50
2021/01/10 01:56:50;;;;;;;;;52.75;45.00;;;;;;;;12623822;28;8974;-46
2021/01/10 02:02:52;;;;;;;;;48.50;41.75;;;;;;;;12619304;28;8848;-47
2021/01/10 02:08:59;;;;;;;;;68.25;52.00;;;;;;;;12613837;28;8865;-51
2021/01/10 02:15:08;;;;;;;;;52.75;45.25;;;;;;;;12617282;28;8839;-46
2021/01/10 02:21:11;;;;;;;;;58.25;47.25;;;;;;;;12617220;28;8844;-47
2021/01/10 02:27:17;;;;;;;;;63.25;50.00;;;;;;;;12619082;28;8844;-46
2021/01/10 02:33:27;;;;;;;;;51.75;47.50;;;;;;;;12612067;28;8824;-53
2021/01/10 02:39:51;;;;;;;;;50.50;43.75;;;;;;;;12613311;28;8818;-50
2021/01/10 02:45:58;;;;;;;;;51.50;46.25;;;;;;;;12619976;28;8863;-47
2021/01/10 02:52:00;;;;;;;;;54.75;45.00;;;;;;;;12602130;28;8828;-47
2021/01/10 02:58:15;;;;;;;;;56.00;48.00;;;;;;;;12620089;28;8835;-47
2021/01/10 03:04:16;;;;;;;;;52.00;45.25;;;;;;;;12604857;28;8894;-47
2021/01/10 03:10:18;;;;;;;;;62.25;49.25;;;;;;;;12621826;28;8870;-47
2021/01/10 03:16:21;;;;;;;;;65.75;54.50;;;;;;;;12613238;28;8828;-46
2021/01/10 03:22:23;;;;;;;;;52.25;47.25;;;;;;;;12619849;28;8828;-48
2021/01/10 03:28:25;;;;;;;;;68.25;51.50;;;;;;;;12622090;28;8828;-47
2021/01/10 03:34:26;;;;;;;;;61.50;48.75;;;;;;;;12616186;28;8861;-46
2021/01/10 03:40:28;;;;;;;;;62.25;49.75;;;;;;;;12605590;28;8908;-49
2021/01/10 03:46:29;;;;;;;;;56.75;48.25;;;;;;;;12621230;28;8855;-48
2021/01/10 03:52:31;;;;;;;;;64.25;53.50;;;;;;;;12622584;28;8934;-46
2021/01/10 03:58:33;;;;;;;;;54.50;46.75;;;;;;;;12622173;28;8915;-46
2021/01/10 04:04:35;;;;;;;;;33.50;26.00;;;;;;;;12609184;28;9602;-51
2021/01/10 04:10:36;;;;;;;;;53.00;44.75;;;;;;;;12615805;28;8871;-46
2021/01/10 04:16:37;;;;;;;;;50.75;43.75;;;;;;;;12612516;28;8863;-46
2021/01/10 04:22:39;;;;;;;;;61.50;48.00;;;;;;;;12610625;28;9023;-49
2021/01/10 04:28:41;;;;;;;;;59.50;46.75;;;;;;;;12615849;28;8827;-49
2021/01/10 04:34:42;;;;;;;;;36.75;27.50;;;;;;;;12612393;28;8816;-46
2021/01/10 04:40:44;;;;;;;;;49.25;40.50;;;;;;;;12597690;28;8961;-49
2021/01/10 04:46:47;;;;;;;;;49.75;38.50;;;;;;;;12614431;28;8912;-46
2021/01/10 04:52:53;;;;;;;;;39.75;36.25;;;;;;;;12620487;28;8820;-48
2021/01/10 04:58:56;;;;;;;;;47.25;38.25;;;;;;;;12626625;28;8889;-50
2021/01/10 05:04:58;;;;;;;;;50.50;36.00;;;;;;;;12623305;28;8835;-48
2021/01/10 05:11:00;;;;;;;;;44.00;37.00;;;;;;;;12627369;28;8827;-49
2021/01/10 05:17:02;;;;;;;;;45.50;38.50;;;;;;;;12622392;28;8883;-46
2021/01/10 05:23:03;;;;;;;;;40.50;38.50;;;;;;;;12625773;28;8820;-46
2021/01/10 05:29:09;;;;;;;;;35.50;33.00;;;;;;;;12627158;28;8941;-47
2021/01/10 05:35:13;;;;;;;;;41.25;35.00;;;;;;;;12626089;28;8823;-50
2021/01/10 05:41:16;;;;;;;;;30.00;25.75;;;;;;;;12627235;28;8851;-49
2021/01/10 05:47:18;;;;;;;;;31.00;27.25;;;;;;;;12571998;28;9361;-44
2021/01/10 05:53:21;;;;;;;;;44.50;35.75;;;;;;;;12570136;28;8822;-47
2021/01/10 05:59:23;;;;;;;;;35.50;29.50;;;;;;;;12576210;28;8930;-47
2021/01/10 06:05:25;;;;;;;;;38.50;26.75;;;;;;;;12577039;28;8834;-47
2021/01/10 06:11:27;;;;;;;;;33.00;30.00;;;;;;;;12568914;28;8846;-47
2021/01/10 06:17:40;;;;;;;;;32.50;28.00;;;;;;;;12615808;28;8918;-47
2021/01/10 06:23:46;;;;;;;;;34.50;33.00;;;;;;;;12620356;28;9622;-48
2021/01/10 06:29:54;;;;;;;;;37.75;34.50;;;;;;;;12616209;28;8853;-47
2021/01/10 06:36:07;;;;;;;;;32.75;29.00;;;;;;;;12616416;28;8840;-48
2021/01/10 06:42:11;;;;;;;;;30.50;27.25;;;;;;;;12617874;28;8812;-46
2021/01/10 06:48:13;;;;;;;;;40.50;35.00;;;;;;;;12618597;28;8823;-48
2021/01/10 06:54:14;;;;;;;;;35.75;31.50;;;;;;;;12619512;28;8851;-49
2021/01/10 07:00:16;;;;;;;;;36.25;33.75;;;;;;;;12594790;28;8950;-47
2021/01/10 07:06:18;;;;;;;;;38.50;32.75;;;;;;;;12620991;28;8870;-50
2021/01/10 07:12:22;;;;;;;;;34.00;31.00;;;;;;;;12611924;28;8900;-52
2021/01/10 07:18:24;;;;;;;;;39.00;31.75;;;;;;;;12620579;28;8911;-47
2021/01/10 07:24:27;;;;;;;;;40.25;32.50;;;;;;;;12620815;28;8838;-49
2021/01/10 07:30:29;;;;;;;;;45.50;38.25;;;;;;;;12615373;28;8841;-48
2021/01/10 07:36:57;;;;;;;;;43.75;40.00;;;;;;;;12621644;28;8858;-49
2021/01/10 07:43:01;;;;;;;;;40.00;36.25;;;;;;;;12619368;28;8883;-49
2021/01/10 07:49:06;;;;;;;;;49.75;43.00;;;;;;;;12622278;28;8858;-48
2021/01/10 07:55:19;;;;;;;;;38.00;37.25;;;;;;;;12618898;28;8830;-46
2021/01/10 08:01:21;;;;;;;;;40.25;38.50;;;;;;;;12614218;28;8819;-47
2021/01/10 08:07:24;;;;;;;;;43.75;34.50;;;;;;;;12604799;28;9651;-50
2021/01/10 08:13:37;;;;;;;;;36.75;31.75;;;;;;;;12624285;28;8839;-51
2021/01/10 08:19:39;;;;;;;;;35.50;31.50;;;;;;;;12596691;28;8843;-51
2021/01/10 08:25:40;;;;;;;;;49.00;42.25;;;;;;;;12617988;28;8843;-52
2021/01/10 08:31:49;;;;;;;;;51.00;41.00;;;;;;;;12624563;28;8828;-49
2021/01/10 08:37:51;;;;;;;;;37.75;32.25;;;;;;;;12621009;28;8854;-48
2021/01/10 08:44:25;;;;;;;;;39.75;36.25;;;;;;;;12621505;28;8840;-50
2021/01/10 08:50:26;;;;;;;;;42.75;37.75;;;;;;;;12618623;28;9677;-48
2021/01/10 08:56:30;;;;;;;;;40.25;27.50;;;;;;;;12625149;28;9373;-48
2021/01/10 09:02:31;;;;;;;;;39.75;35.00;;;;;;;;12614961;28;8824;-50
2021/01/10 09:08:40;;;;;;;;;41.75;34.00;;;;;;;;12619481;28;8821;-48
2021/01/10 09:15:09;;;;;;;;;38.75;37.25;;;;;;;;12626650;28;8812;-47
2021/01/10 09:21:16;;;;;;;;;44.25;35.75;;;;;;;;12625317;28;8836;-50
2021/01/10 09:27:20;;;;;;;;;29.50;26.00;;;;;;;;12617423;28;8827;-48
2021/01/10 09:33:26;;;;;;;;;35.75;32.75;;;;;;;;12621217;28;8842;-50
2021/01/10 09:39:44;;;;;;;;;33.25;33.25;;;;;;;;12625768;28;8855;-48
2021/01/10 09:45:46;;;;;;;;;37.25;29.75;;;;;;;;12626360;28;9657;-49
2021/01/10 09:51:47;;;;;;;;;38.50;32.00;;;;;;;;12626914;28;8820;-49
2021/01/10 09:57:48;;;;;;;;;36.75;33.50;;;;;;;;12617615;28;8844;-48
2021/01/10 10:03:50;;;;;;;;;32.25;31.25;;;;;;;;12622759;28;8909;-53
2021/01/10 10:09:54;;;;;;;;;35.75;32.25;;;;;;;;12627021;28;8876;-49
2021/01/10 10:15:55;;;;;;;;;37.75;32.25;;;;;;;;12619704;28;8874;-51
2021/01/10 10:21:57;;;;;;;;;32.00;30.75;;;;;;;;12618552;28;8910;-49
2021/01/10 10:28:00;;;;;;;;;29.25;29.25;;;;;;;;12621868;28;8831;-49
2021/01/10 10:34:02;;;;;;;;;37.25;32.25;;;;;;;;12616100;28;8839;-52
2021/01/10 10:40:04;;;;;;;;;34.50;31.50;;;;;;;;12610840;28;8828;-47
2021/01/10 10:46:05;;;;;;;;;31.25;30.50;;;;;;;;12613773;28;8838;-48
2021/01/10 10:52:13;;;;;;;;;30.00;27.25;;;;;;;;12618393;28;8892;-51
2021/01/10 10:58:14;;;;;;;;;38.25;31.00;;;;;;;;12616904;28;8839;-49
2021/01/10 11:04:15;;;;;;;;;34.00;30.00;;;;;;;;12619646;28;8863;-52
2021/01/10 11:10:19;;;;;;;;;31.50;29.50;;;;;;;;12621155;28;8920;-49
2021/01/10 11:16:28;;;;;;;;;41.00;34.75;;;;;;;;12612344;28;8834;-54
2021/01/10 11:22:34;;;;;;;;;40.75;34.00;;;;;;;;12620305;28;8816;-48
2021/01/10 11:28:36;;;;;;;;;31.75;27.50;;;;;;;;12619355;28;9638;-50
2021/01/10 11:34:37;;;;;;;;;38.25;34.00;;;;;;;;12602722;28;8835;-54
2021/01/10 11:40:39;;;;;;;;;31.25;28.75;;;;;;;;12622550;28;8847;-49
2021/01/10 11:46:43;;;;;;;;;33.25;29.00;;;;;;;;12622624;28;8835;-52
2021/01/10 11:52:44;;;;;;;;;39.25;34.00;;;;;;;;12623248;28;8835;-54
2021/01/10 11:58:46;;;;;;;;;34.00;31.25;;;;;;;;12625970;28;9576;-48
2021/01/10 12:04:47;;;;;;;;;32.00;25.25;;;;;;;;12614844;28;8862;-48
2021/01/10 12:10:50;;;;;;;;;30.50;26.00;;;;;;;;12632080;28;8823;-49
2021/01/10 12:16:51;;;;;;;;;27.50;26.75;;;;;;;;12629442;28;9608;-50
2021/01/10 12:22:53;;;;;;;;;37.25;32.75;;;;;;;;12625017;28;8846;-51
2021/01/10 12:28:55;;;;;;;;;32.50;28.00;;;;;;;;12613429;28;8850;-49
2021/01/10 12:34:56;;;;;;;;;34.25;30.25;;;;;;;;12571627;28;8865;-50
2021/01/10 12:40:58;;;;;;;;;29.25;25.25;;;;;;;;12573825;28;8826;-48
2021/01/10 12:47:00;;;;;;;;;45.75;36.25;;;;;;;;12604030;28;8836;-49
2021/01/10 12:53:01;;;;;;;;;34.50;32.25;;;;;;;;12624595;28;8828;-48
2021/01/10 12:59:03;;;;;;;;;40.25;31.00;;;;;;;;12620313;28;9653;-54
2021/01/10 13:05:06;;;;;;;;;33.25;28.50;;;;;;;;12623036;28;8844;-45
2021/01/10 13:11:09;;;;;;;;;36.50;34.00;;;;;;;;12624267;28;8850;-48
2021/01/10 13:17:10;;;;;;;;;27.00;25.25;;;;;;;;12625579;28;8875;-48
2021/01/10 13:23:11;;;;;;;;;37.75;33.00;;;;;;;;12625831;28;9571;-47
2021/01/10 13:29:13;;;;;;;;;38.75;34.00;;;;;;;;12619917;28;8884;-54
2021/01/10 13:35:14;;;;;;;;;35.75;34.00;;;;;;;;12625515;28;8854;-54
2021/01/10 13:41:17;;;;;;;;;54.00;39.50;;;;;;;;12626464;28;8860;-52
2021/01/10 13:47:18;;;;;;;;;53.75;43.75;;;;;;;;12626649;28;8843;-49
2021/01/10 13:53:20;;;;;;;;;48.00;44.50;;;;;;;;12626856;28;8933;-49
2021/01/10 13:59:21;;;;;;;;;63.00;46.50;;;;;;;;12618281;28;8837;-52
2021/01/10 14:05:23;;;;;;;;;53.00;46.75;;;;;;;;12626572;28;8844;-48
2021/01/10 14:11:26;;;;;;;;;43.50;36.75;;;;;;;;12626133;28;8955;-51
2021/01/10 14:17:28;;;;;;;;;54.50;42.50;;;;;;;;12626288;28;8831;-50
2021/01/10 14:23:30;;;;;;;;;60.25;48.75;;;;;;;;12617487;28;8840;-54
2021/01/10 14:29:32;;;;;;;;;55.00;45.75;;;;;;;;12613827;28;8845;-51
2021/01/10 14:35:37;;;;;;;;;61.00;50.00;;;;;;;;12567103;28;8834;-49
2021/01/10 14:41:38;;;;;;;;;66.00;50.75;;;;;;;;12616824;28;8824;-50
2021/01/10 14:47:40;;;;;;;;;62.75;52.00;;;;;;;;12613609;28;8849;-48
2021/01/10 14:53:42;;;;;;;;;58.50;49.00;;;;;;;;12619767;28;8885;-48
2021/01/10 14:59:43;;;;;;;;;63.33;50.67;;;;;;;;12597902;28;8926;-50
2021/01/10 15:05:45;;;;;;;;;63.50;50.75;;;;;;;;12619368;28;8875;-53
2021/01/10 15:11:48;;;;;;;;;63.00;51.00;;;;;;;;12617643;28;9009;-54
2021/01/10 15:17:50;;;;;;;;;73.67;54.33;;;;;;;;12615989;28;8835;-55
2021/01/10 15:23:53;;;;;;;;;58.75;48.50;;;;;;;;12621407;28;9632;-47
2021/01/10 15:29:55;;;;;;;;;59.67;46.33;;;;;;;;12618331;28;8835;-55
2021/01/10 15:35:59;;;;;;;;;73.33;58.00;;;;;;;;12619920;28;9628;-54
2021/01/10 15:42:01;;;;;;;;;49.00;45.00;;;;;;;;12617097;28;8844;-53
2021/01/10 15:48:03;;;;;;;;;67.67;50.67;;;;;;;;12618571;28;8839;-52
2021/01/10 15:54:05;;;;;;;;;60.33;49.00;;;;;;;;12621703;28;8824;-48
2021/01/10 16:00:07;;;;;;;;;65.00;51.67;;;;;;;;12620636;28;8848;-53
2021/01/10 16:06:13;;;;;;;;;66.00;50.33;;;;;;;;12622290;28;8863;-48
2021/01/10 16:12:15;;;;;;;;;57.67;48.67;;;;;;;;12617366;28;8842;-50
2021/01/10 16:18:16;;;;;;;;;70.00;58.00;;;;;;;;12572603;28;9639;-48
2021/01/10 16:24:17;;;;;;;;;67.00;53.33;;;;;;;;12573127;28;8848;-48
2021/01/10 16:30:19;;;;;;;;;66.67;53.33;;;;;;;;12595740;28;8837;-48
2021/01/10 16:36:21;;;;;;;;;68.00;51.67;;;;;;;;12592384;28;8840;-50
2021/01/10 16:42:25;;;;;;;;;67.33;53.00;;;;;;;;12610450;28;8860;-50
2021/01/10 16:48:26;;;;;;;;;49.33;42.00;;;;;;;;12623534;28;8862;-47
2021/01/10 16:54:29;;;;;;;;;58.00;47.33;;;;;;;;12624409;28;8832;-50
2021/01/10 17:00:30;;;;;;;;;39.00;33.00;;;;;;;;12617556;28;8846;-49
2021/01/10 17:06:31;;;;;;;;;45.00;41.33;;;;;;;;12624773;28;8873;-50
2021/01/10 17:12:33;;;;;;;;;40.33;34.67;;;;;;;;12623344;28;8872;-50
2021/01/10 17:18:34;;;;;;;;;54.00;45.00;;;;;;;;12624791;28;8862;-49
2021/01/10 17:24:37;;;;;;;;;50.33;47.33;;;;;;;;12624909;28;8868;-48
2021/01/10 17:30:38;;;;;;;;;58.67;49.67;;;;;;;;12599790;28;9586;-52
2021/01/10 17:36:39;;;;;;;;;65.67;48.67;;;;;;;;12625823;28;8864;-51
2021/01/10 17:42:52;;;;;;;;;54.33;48.33;;;;;;;;12624043;28;8831;-50
2021/01/10 17:48:54;;;;;;;;;64.00;48.00;;;;;;;;12625924;28;8839;-48
2021/01/10 17:54:55;;;;;;;;;54.00;42.00;;;;;;;;12623104;28;8866;-49
2021/01/10 18:00:57;;;;;;;;;39.33;35.67;;;;;;;;12622877;28;8860;-48
2021/01/10 18:06:58;;;;;;;;;54.67;48.67;;;;;;;;12626566;28;9032;-51
2021/01/10 18:13:00;;;;;;;;;43.33;40.67;;;;;;;;12626728;28;8846;-47
2021/01/10 18:19:02;;;;;;;;;39.33;31.67;;;;;;;;12627284;28;8851;-54
2021/01/10 18:25:05;;;;;;;;;49.67;42.00;;;;;;;;12625615;28;8840;-51
2021/01/10 18:31:07;;;;;;;;;43.33;38.00;;;;;;;;12626112;28;8859;-48
2021/01/10 18:37:09;;;;;;;;;38.33;36.67;;;;;;;;12627825;28;8844;-48
2021/01/10 18:43:12;;;;;;;;;49.33;42.00;;;;;;;;12603960;28;9616;-51
2021/01/10 18:49:13;;;;;;;;;38.67;30.67;;;;;;;;12618837;28;8847;-49
2021/01/10 18:55:15;;;;;;;;;47.67;36.67;;;;;;;;12618775;28;9779;-53
2021/01/10 19:01:23;;;;;;;;;43.00;35.00;;;;;;;;12619336;28;8843;-51
2021/01/10 19:07:25;;;;;;;;;37.00;34.67;;;;;;;;12610605;28;8915;-48
2021/01/10 19:13:26;;;;;;;;;40.33;33.67;;;;;;;;12612856;28;8884;-49
2021/01/10 19:19:33;;;;;;;;;37.00;30.67;;;;;;;;12619579;28;8863;-49
2021/01/10 19:25:34;;;;;;;;;28.00;28.00;;;;;;;;12602453;28;8822;-47
2021/01/10 19:31:38;;;;;;;;;37.33;31.67;;;;;;;;12619692;28;8863;-49
2021/01/10 19:37:42;;;;;;;;;32.67;24.33;;;;;;;;12619317;28;8831;-50
2021/01/10 19:43:48;;;;;;;;;29.33;25.00;;;;;;;;12616670;28;8824;-51
2021/01/10 19:49:49;;;;;;;;;27.25;22.25;;;;;;;;12621217;28;8947;-50
2021/01/10 19:55:51;;;;;;;;;124.50;111.75;;;;;;;;12619379;28;8844;-50
2021/01/10 20:01:53;;;;;;;;;28.00;28.00;;;;;;;;12620917;28;8840;-54
2021/01/10 20:08:09;;;;;;;;;32.33;30.67;;;;;;;;12618694;28;8854;-47
2021/01/10 20:14:11;;;;;;;;;27.67;26.33;;;;;;;;12620144;28;8840;-46
2021/01/10 20:20:16;;;;;;;;;35.00;33.50;;;;;;;;12626106;28;8828;-52
2021/01/10 20:26:27;;;;;;;;;24.00;21.50;;;;;;;;12631878;28;8855;-50
2021/01/10 20:32:28;;;;;;;;;33.33;27.33;;;;;;;;12625003;28;9698;-48
2021/01/10 20:38:31;;;;;;;;;28.75;27.00;;;;;;;;12628319;28;8849;-49
2021/01/10 20:44:33;;;;;;;;;42.00;38.00;;;;;;;;12623867;28;8850;-47
2021/01/10 20:50:34;;;;;;;;;34.00;30.00;;;;;;;;12630497;28;8848;-49
2021/01/10 20:56:40;;;;;;;;;6.00;6.00;;;;;;;;12618947;28;8919;-50
2021/01/10 21:02:42;;;;;;;;;22.67;22.67;;;;;;;;12624709;28;8863;-51
2021/01/10 21:08:43;;;;;;;;;21.25;21.00;;;;;;;;12624104;28;8859;-52
2021/01/10 21:14:45;;;;;;;;;18.00;18.00;;;;;;;;12624701;28;8839;-48
2021/01/10 21:20:46;;;;;;;;;23.00;21.75;;;;;;;;12623735;28;8870;-50
2021/01/10 21:26:55;;;;;;;;;16.00;15.25;;;;;;;;12619964;28;8843;-50
2021/01/10 21:33:01;;;;;;;;;18.75;18.50;;;;;;;;12624495;28;8848;-50
2021/01/10 21:39:05;;;;;;;;;25.50;21.25;;;;;;;;12622696;28;8854;-48
2021/01/10 21:45:08;;;;;;;;;20.75;16.50;;;;;;;;12624884;28;9607;-52
2021/01/10 21:51:13;;;;;;;;;20.50;18.50;;;;;;;;12621603;28;9675;-47
2021/01/10 21:57:15;;;;;;;;;17.00;17.00;;;;;;;;12625069;28;8848;-52
2021/01/10 22:03:16;;;;;;;;;20.25;12.25;;;;;;;;12625705;28;8957;-51
2021/01/10 22:09:20;;;;;;;;;21.25;18.00;;;;;;;;12607902;28;8834;-53
2021/01/10 22:15:21;;;;;;;;;16.50;13.00;;;;;;;;12625750;28;8839;-47
2021/01/10 22:21:23;;;;;;;;;22.50;18.00;;;;;;;;12618089;28;9470;-48
2021/01/10 22:27:24;;;;;;;;;23.00;18.50;;;;;;;;12627061;28;8847;-49
2021/01/10 22:33:26;;;;;;;;;21.00;19.00;;;;;;;;12626969;28;8835;-50
2021/01/10 22:39:30;;;;;;;;;18.75;16.00;;;;;;;;12626886;28;8827;-47
2021/01/10 22:45:31;;;;;;;;;20.50;18.00;;;;;;;;12618199;28;9635;-49
2021/01/10 22:51:33;;;;;;;;;16.50;16.50;;;;;;;;12614572;28;8821;-50
2021/01/10 22:57:35;;;;;;;;;17.25;16.50;;;;;;;;12618900;28;8863;-49
2021/01/10 23:03:37;;;;;;;;;18.25;16.50;;;;;;;;12617850;28;9597;-49
2021/01/10 23:09:38;;;;;;;;;21.25;16.00;;;;;;;;12612584;28;8841;-51
2021/01/10 23:15:40;;;;;;;;;16.50;16.50;;;;;;;;12618468;28;9702;-46
2021/01/10 23:21:41;;;;;;;;;12.00;10.25;;;;;;;;12616574;28;8832;-48
2021/01/10 23:27:48;;;;;;;;;14.50;13.00;;;;;;;;12618683;28;8861;-51
2021/01/10 23:33:49;;;;;;;;;20.00;14.00;;;;;;;;12617461;28;8835;-53
2021/01/10 23:39:52;;;;;;;;;18.75;16.50;;;;;;;;12615896;28;8836;-47
2021/01/10 23:45:53;;;;;;;;;18.50;15.75;;;;;;;;12619530;28;8832;-51
2021/01/10 23:51:54;;;;;;;;;15.25;10.50;;;;;;;;12618953;28;8839;-55
2021/01/10 23:57:56;;;;;;;;;18.00;15.00;;;;;;;;12619823;28;8827;-50
